Time,TemperatureF,DewpointF,PressureIn,WindDirection,WindDirectionDegrees,WindSpeedMPH,WindSpeedGustMPH,Humidity,HourlyPrecipIn,Conditions,Clouds,dailyrainin,SoftwareType,DateUTC
2013-03-15 00:02:00,50.0,-99.9,30.14,WNW,296,21.0,25.0,-999,-99.99,,,-99.99,,2013-03-15 07:02:00,
2013-03-15 00:13:00,50.0,-99.9,30.14,WNW,299,20.0,24.0,-999,-99.99,,,-99.99,,2013-03-15 07:13:00,
2013-03-15 00:22:00,50.0,-99.9,30.15,NW,307,15.0,22.0,-999,-99.99,,,-99.99,,2013-03-15 07:22:00,
2013-03-15 00:32:00,50.0,-99.9,30.15,NW,310,15.0,17.0,-999,-99.99,,,-99.99,,2013-03-15 07:32:00,
2013-03-15 00:42:00,50.0,-99.9,30.15,NW,325,10.0,16.0,-999,-99.99,,,-99.99,,2013-03-15 07:42:00,
2013-03-15 00:52:00,50.0,-99.9,30.15,WNW,298,14.0,16.0,-999,-99.99,,,-99.99,,2013-03-15 07:52:00,
2013-03-15 01:03:00,51.0,-99.9,30.15,WNW,293,18.0,20.0,-999,-99.99,,,-99.99,,2013-03-15 08:03:00,
2013-03-15 01:12:00,51.0,-99.9,30.15,WNW,291,21.0,24.0,-999,-99.99,,,-99.99,,2013-03-15 08:12:00,
2013-03-15 01:23:00,51.0,-99.9,30.15,WNW,294,22.0,26.0,-999,-99.99,,,-99.99,,2013-03-15 08:23:00,
2013-03-15 01:33:00,51.0,-99.9,30.16,WNW,296,25.0,29.0,-999,-99.99,,,-99.99,,2013-03-15 08:33:00,
2013-03-15 01:42:00,51.0,-99.9,30.16,WNW,298,23.0,29.0,-999,-99.99,,,-99.99,,2013-03-15 08:42:00,
2013-03-15 01:53:00,51.0,-99.9,30.16,WNW,302,21.0,29.0,-999,-99.99,,,-99.99,,2013-03-15 08:53:00,
2013-03-15 02:02:00,51.0,-99.9,30.16,NW,309,18.0,21.0,-999,-99.99,,,-99.99,,2013-03-15 09:02:00,
2013-03-15 02:12:00,50.0,-99.9,30.16,WNW,303,16.0,21.0,-999,-99.99,,,-99.99,,2013-03-15 09:12:00,
2013-03-15 02:22:00,50.0,-99.9,30.16,WNW,303,19.0,23.0,-999,-99.99,,,-99.99,,2013-03-15 09:22:00,
2013-03-15 02:33:00,50.0,-99.9,30.16,WNW,300,17.0,23.0,-999,-99.99,,,-99.99,,2013-03-15 09:33:00,
2013-03-15 02:43:00,50.0,-99.9,30.15,WNW,303,17.0,20.0,-999,-99.99,,,-99.99,,2013-03-15 09:43:00,
2013-03-15 02:53:00,50.0,-99.9,30.15,NW,305,17.0,19.0,-999,-99.99,,,-99.99,,2013-03-15 09:53:00,
2013-03-15 03:03:00,51.0,-99.9,30.14,WNW,302,21.0,24.0,-999,-99.99,,,-99.99,,2013-03-15 10:03:00,
2013-03-15 03:13:00,50.0,-99.9,30.14,WNW,296,21.0,25.0,-999,-99.99,,,-99.99,,2013-03-15 10:13:00,
2013-03-15 03:23:00,51.0,-99.9,30.15,WNW,298,24.0,28.0,-999,-99.99,,,-99.99,,2013-03-15 10:23:00,
2013-03-15 03:33:00,50.0,-99.9,30.15,WNW,299,21.0,26.0,-999,-99.99,,,-99.99,,2013-03-15 10:33:00,
2013-03-15 03:43:00,50.0,-99.9,30.15,NW,311,21.0,26.0,-999,-99.99,,,-99.99,,2013-03-15 10:43:00,
2013-03-15 03:52:00,50.0,-99.9,30.15,NW,313,19.0,26.0,-999,-99.99,,,-99.99,,2013-03-15 10:52:00,
2013-03-15 04:03:00,50.0,-99.9,30.14,NW,310,20.0,24.0,-999,-99.99,,,-99.99,,2013-03-15 11:03:00,
2013-03-15 04:12:00,50.0,-99.9,30.13,NW,309,22.0,27.0,-999,-99.99,,,-99.99,,2013-03-15 11:12:00,
2013-03-15 04:23:00,50.0,-99.9,30.13,NW,306,20.0,25.0,-999,-99.99,,,-99.99,,2013-03-15 11:23:00,
2013-03-15 04:33:00,50.0,-99.9,30.13,NW,307,21.0,26.0,-999,-99.99,,,-99.99,,2013-03-15 11:33:00,
2013-03-15 04:43:00,50.0,-99.9,30.13,NW,314,20.0,25.0,-999,-99.99,,,-99.99,,2013-03-15 11:43:00,
2013-03-15 04:53:00,50.0,-99.9,30.13,NW,313,18.0,24.0,-999,-99.99,,,-99.99,,2013-03-15 11:53:00,
2013-03-15 05:02:00,50.0,-99.9,30.13,NW,315,18.0,22.0,-999,-99.99,,,-99.99,,2013-03-15 12:02:00,
2013-03-15 05:13:00,50.0,-99.9,30.13,NW,314,21.0,23.0,-999,-99.99,,,-99.99,,2013-03-15 12:13:00,
2013-03-15 05:23:00,50.0,-99.9,30.12,NW,312,19.0,23.0,-999,-99.99,,,-99.99,,2013-03-15 12:23:00,
2013-03-15 05:32:00,50.0,-99.9,30.11,NW,318,15.0,20.0,-999,-99.99,,,-99.99,,2013-03-15 12:32:00,
2013-03-15 05:42:00,50.0,-99.9,30.12,NW,314,18.0,21.0,-999,-99.99,,,-99.99,,2013-03-15 12:42:00,
2013-03-15 05:52:00,50.0,-99.9,30.12,NW,308,19.0,23.0,-999,-99.99,,,-99.99,,2013-03-15 12:52:00,
2013-03-15 06:02:00,50.0,-99.9,30.13,NW,310,19.0,26.0,-999,-99.99,,,-99.99,,2013-03-15 13:02:00,
2013-03-15 06:12:00,50.0,-99.9,30.13,NW,308,20.0,25.0,-999,-99.99,,,-99.99,,2013-03-15 13:12:00,
2013-03-15 06:22:00,50.0,-99.9,30.13,NW,312,18.0,23.0,-999,-99.99,,,-99.99,,2013-03-15 13:22:00,
2013-03-15 06:32:00,50.0,-99.9,30.14,NW,313,19.0,26.0,-999,-99.99,,,-99.99,,2013-03-15 13:32:00,
2013-03-15 06:42:00,50.0,-99.9,30.13,NW,318,18.0,22.0,-999,-99.99,,,-99.99,,2013-03-15 13:42:00,
2013-03-15 06:53:00,50.0,-99.9,30.13,NW,326,14.0,19.0,-999,-99.99,,,-99.99,,2013-03-15 13:53:00,
2013-03-15 07:02:00,50.0,-99.9,30.13,NNW,328,12.0,18.0,-999,-99.99,,,-99.99,,2013-03-15 14:02:00,
2013-03-15 07:12:00,50.0,-99.9,30.13,NNW,330,12.0,16.0,-999,-99.99,,,-99.99,,2013-03-15 14:12:00,
2013-03-15 07:22:00,50.0,-99.9,30.12,NNW,331,12.0,16.0,-999,-99.99,,,-99.99,,2013-03-15 14:22:00,
2013-03-15 07:33:00,50.0,-99.9,30.12,NNW,332,11.0,13.0,-999,-99.99,,,-99.99,,2013-03-15 14:33:00,
2013-03-15 07:42:00,50.0,-99.9,30.12,NW,323,11.0,14.0,-999,-99.99,,,-99.99,,2013-03-15 14:42:00,
2013-03-15 07:53:00,50.0,-99.9,30.13,NW,311,13.0,16.0,-999,-99.99,,,-99.99,,2013-03-15 14:53:00,
2013-03-15 08:02:00,50.0,-99.9,30.13,NW,320,13.0,17.0,-999,-99.99,,,-99.99,,2013-03-15 15:02:00,
2013-03-15 08:13:00,50.0,-99.9,30.12,NW,315,14.0,18.0,-999,-99.99,,,-99.99,,2013-03-15 15:13:00,
2013-03-15 08:23:00,50.0,-99.9,30.12,NW,318,14.0,18.0,-999,-99.99,,,-99.99,,2013-03-15 15:23:00,
2013-03-15 08:33:00,50.0,-99.9,30.13,NW,319,14.0,18.0,-999,-99.99,,,-99.99,,2013-03-15 15:33:00,
2013-03-15 08:43:00,50.0,-99.9,30.13,NW,313,17.0,20.0,-999,-99.99,,,-99.99,,2013-03-15 15:43:00,
2013-03-15 08:53:00,50.0,-99.9,30.13,NW,315,16.0,20.0,-999,-99.99,,,-99.99,,2013-03-15 15:53:00,
2013-03-15 09:03:00,51.0,-99.9,30.13,NW,304,21.0,24.0,-999,-99.99,,,-99.99,,2013-03-15 16:03:00,
2013-03-15 09:13:00,51.0,-99.9,30.12,WNW,299,21.0,25.0,-999,-99.99,,,-99.99,,2013-03-15 16:13:00,
2013-03-15 09:23:00,51.0,-99.9,30.13,WNW,298,21.0,26.0,-999,-99.99,,,-99.99,,2013-03-15 16:23:00,
2013-03-15 09:32:00,51.0,-99.9,30.13,WNW,299,21.0,25.0,-999,-99.99,,,-99.99,,2013-03-15 16:32:00,
2013-03-15 09:42:00,51.0,-99.9,30.14,WNW,299,20.0,25.0,-999,-99.99,,,-99.99,,2013-03-15 16:42:00,
2013-03-15 09:53:00,51.0,-99.9,30.14,WNW,297,21.0,26.0,-999,-99.99,,,-99.99,,2013-03-15 16:53:00,
2013-03-15 10:02:00,51.0,-99.9,30.14,WNW,295,21.0,26.0,-999,-99.99,,,-99.99,,2013-03-15 17:02:00,
2013-03-15 10:12:00,51.0,-99.9,30.14,WNW,303,17.0,23.0,-999,-99.99,,,-99.99,,2013-03-15 17:12:00,
2013-03-15 10:23:00,51.0,-99.9,30.14,WNW,299,18.0,23.0,-999,-99.99,,,-99.99,,2013-03-15 17:23:00,
2013-03-15 10:33:00,51.0,-99.9,30.14,WNW,301,20.0,24.0,-999,-99.99,,,-99.99,,2013-03-15 17:33:00,
2013-03-15 10:43:00,51.0,-99.9,30.14,WNW,303,21.0,26.0,-999,-99.99,,,-99.99,,2013-03-15 17:43:00,
2013-03-15 10:53:00,51.0,-99.9,30.14,WNW,300,21.0,26.0,-999,-99.99,,,-99.99,,2013-03-15 17:53:00,
2013-03-15 11:03:00,51.0,-99.9,30.14,NW,304,21.0,26.0,-999,-99.99,,,-99.99,,2013-03-15 18:03:00,
2013-03-15 11:12:00,51.0,-99.9,30.14,WNW,301,21.0,28.0,-999,-99.99,,,-99.99,,2013-03-15 18:12:00,
2013-03-15 11:22:00,51.0,-99.9,30.14,WNW,301,21.0,25.0,-999,-99.99,,,-99.99,,2013-03-15 18:22:00,
2013-03-15 11:32:00,51.0,-99.9,30.14,WNW,303,21.0,26.0,-999,-99.99,,,-99.99,,2013-03-15 18:32:00,
2013-03-15 11:42:00,51.0,-99.9,30.14,WNW,303,23.0,27.0,-999,-99.99,,,-99.99,,2013-03-15 18:42:00,
2013-03-15 11:53:00,51.0,-99.9,30.13,WNW,302,21.0,26.0,-999,-99.99,,,-99.99,,2013-03-15 18:53:00,
2013-03-15 12:02:00,51.0,-99.9,30.13,NW,304,22.0,28.0,-999,-99.99,,,-99.99,,2013-03-15 19:02:00,
2013-03-15 12:12:00,51.0,-99.9,30.13,WNW,303,23.0,29.0,-999,-99.99,,,-99.99,,2013-03-15 19:12:00,
2013-03-15 12:23:00,51.0,-99.9,30.13,WNW,303,23.0,28.0,-999,-99.99,,,-99.99,,2013-03-15 19:23:00,
2013-03-15 12:32:00,51.0,-99.9,30.13,NW,308,23.0,28.0,-999,-99.99,,,-99.99,,2013-03-15 19:32:00,
2013-03-15 12:42:00,51.0,-99.9,30.12,NW,309,18.0,28.0,-999,-99.99,,,-99.99,,2013-03-15 19:42:00,
2013-03-15 12:53:00,51.0,-99.9,30.12,NW,310,19.0,24.0,-999,-99.99,,,-99.99,,2013-03-15 19:53:00,
2013-03-15 13:03:00,51.0,-99.9,30.12,NW,307,20.0,23.0,-999,-99.99,,,-99.99,,2013-03-15 20:03:00,
2013-03-15 13:12:00,51.0,-99.9,30.12,WNW,303,19.0,24.0,-999,-99.99,,,-99.99,,2013-03-15 20:12:00,
2013-03-15 13:22:00,52.0,-99.9,30.12,WNW,298,21.0,25.0,-999,-99.99,,,-99.99,,2013-03-15 20:22:00,
2013-03-15 13:32:00,52.0,-99.9,30.12,WNW,293,20.0,26.0,-999,-99.99,,,-99.99,,2013-03-15 20:32:00,
2013-03-15 13:42:00,52.0,-99.9,30.12,WNW,287,26.0,30.0,-999,-99.99,,,-99.99,,2013-03-15 20:42:00,
2013-03-15 13:52:00,52.0,-99.9,30.11,WNW,294,27.0,30.0,-999,-99.99,,,-99.99,,2013-03-15 20:52:00,
2013-03-15 14:02:00,52.0,-99.9,30.12,WNW,292,23.0,30.0,-999,-99.99,,,-99.99,,2013-03-15 21:02:00,
2013-03-15 14:12:00,53.0,-99.9,30.12,WNW,290,22.0,28.0,-999,-99.99,,,-99.99,,2013-03-15 21:12:00,
2013-03-15 14:22:00,52.0,-99.9,30.13,WNW,288,28.0,31.0,-999,-99.99,,,-99.99,,2013-03-15 21:22:00,
2013-03-15 14:33:00,52.0,-99.9,30.12,WNW,287,28.0,32.0,-999,-99.99,,,-99.99,,2013-03-15 21:33:00,
2013-03-15 14:43:00,52.0,-99.9,30.13,WNW,295,30.0,33.0,-999,-99.99,,,-99.99,,2013-03-15 21:43:00,
2013-03-15 14:53:00,52.0,-99.9,30.13,WNW,295,28.0,32.0,-999,-99.99,,,-99.99,,2013-03-15 21:53:00,
2013-03-15 15:04:00,52.0,-99.9,30.13,WNW,293,24.0,32.0,-999,-99.99,,,-99.99,,2013-03-15 22:04:00,
2013-03-15 15:14:00,52.0,-99.9,30.13,WNW,295,24.0,28.0,-999,-99.99,,,-99.99,,2013-03-15 22:14:00,
2013-03-15 15:22:00,52.0,-99.9,30.13,WNW,299,25.0,28.0,-999,-99.99,,,-99.99,,2013-03-15 22:22:00,
2013-03-15 15:33:00,52.0,-99.9,30.12,WNW,301,22.0,27.0,-999,-99.99,,,-99.99,,2013-03-15 22:33:00,
2013-03-15 15:42:00,52.0,-99.9,30.12,NW,311,21.0,26.0,-999,-99.99,,,-99.99,,2013-03-15 22:42:00,
2013-03-15 15:53:00,52.0,-99.9,30.12,NW,309,19.0,25.0,-999,-99.99,,,-99.99,,2013-03-15 22:53:00,
2013-03-15 16:03:00,52.0,-99.9,30.12,WNW,302,20.0,25.0,-999,-99.99,,,-99.99,,2013-03-15 23:03:00,
2013-03-15 16:12:00,52.0,-99.9,30.12,NW,304,19.0,24.0,-999,-99.99,,,-99.99,,2013-03-15 23:12:00,
2013-03-15 16:22:00,52.0,-99.9,30.12,WNW,302,22.0,27.0,-999,-99.99,,,-99.99,,2013-03-15 23:22:00,
2013-03-15 16:32:00,52.0,-99.9,30.12,WNW,293,24.0,27.0,-999,-99.99,,,-99.99,,2013-03-15 23:32:00,
2013-03-15 16:42:00,51.0,-99.9,30.12,NW,307,19.0,29.0,-999,-99.99,,,-99.99,,2013-03-15 23:42:00,
2013-03-15 16:53:00,51.0,-99.9,30.11,WNW,300,24.0,28.0,-999,-99.99,,,-99.99,,2013-03-15 23:53:00,
2013-03-15 17:03:00,51.0,-99.9,30.12,WNW,297,21.0,27.0,-999,-99.99,,,-99.99,,2013-03-16 00:03:00,
2013-03-15 17:12:00,51.0,-99.9,30.12,WNW,302,17.0,23.0,-999,-99.99,,,-99.99,,2013-03-16 00:12:00,
2013-03-15 17:22:00,51.0,-99.9,30.12,NW,306,17.0,23.0,-999,-99.99,,,-99.99,,2013-03-16 00:22:00,
2013-03-15 17:32:00,51.0,-99.9,30.12,NW,306,17.0,23.0,-999,-99.99,,,-99.99,,2013-03-16 00:32:00,
2013-03-15 17:42:00,52.0,-99.9,30.11,NW,325,15.0,20.0,-999,-99.99,,,-99.99,,2013-03-16 00:42:00,
2013-03-15 17:52:00,52.0,-99.9,30.11,NW,325,14.0,18.0,-999,-99.99,,,-99.99,,2013-03-16 00:52:00,
2013-03-15 18:03:00,52.0,-99.9,30.11,WNW,301,17.0,21.0,-999,-99.99,,,-99.99,,2013-03-16 01:03:00,
2013-03-15 18:12:00,51.0,-99.9,30.10,WNW,302,19.0,23.0,-999,-99.99,,,-99.99,,2013-03-16 01:12:00,
2013-03-15 18:22:00,51.0,-99.9,30.10,NW,311,17.0,22.0,-999,-99.99,,,-99.99,,2013-03-16 01:22:00,
2013-03-15 18:32:00,51.0,-99.9,30.09,WNW,303,22.0,24.0,-999,-99.99,,,-99.99,,2013-03-16 01:32:00,
2013-03-15 18:42:00,51.0,-99.9,30.08,WNW,290,22.0,28.0,-999,-99.99,,,-99.99,,2013-03-16 01:42:00,
2013-03-15 18:53:00,51.0,-99.9,30.08,WNW,288,23.0,28.0,-999,-99.99,,,-99.99,,2013-03-16 01:53:00,
2013-03-15 19:02:00,52.0,-99.9,30.08,WNW,289,23.0,29.0,-999,-99.99,,,-99.99,,2013-03-16 02:02:00,
2013-03-15 19:13:00,51.0,-99.9,30.08,WNW,295,20.0,26.0,-999,-99.99,,,-99.99,,2013-03-16 02:13:00,
2013-03-15 19:23:00,51.0,-99.9,30.09,WNW,300,16.0,20.0,-999,-99.99,,,-99.99,,2013-03-16 02:23:00,
2013-03-15 19:33:00,51.0,-99.9,30.08,NNW,340,12.0,16.0,-999,-99.99,,,-99.99,,2013-03-16 02:33:00,
2013-03-15 19:43:00,51.0,-99.9,30.08,NW,306,14.0,17.0,-999,-99.99,,,-99.99,,2013-03-16 02:43:00,
2013-03-15 19:53:00,51.0,-99.9,30.08,NW,316,10.0,16.0,-999,-99.99,,,-99.99,,2013-03-16 02:53:00,
2013-03-15 20:02:00,51.0,-99.9,30.07,WNW,283,17.0,20.0,-999,-99.99,,,-99.99,,2013-03-16 03:02:00,
2013-03-15 20:12:00,51.0,-99.9,30.08,NW,316,11.0,15.0,-999,-99.99,,,-99.99,,2013-03-16 03:12:00,
2013-03-15 20:22:00,51.0,-99.9,30.08,NNW,330,11.0,19.0,-999,-99.99,,,-99.99,,2013-03-16 03:22:00,
2013-03-15 20:33:00,51.0,-99.9,30.07,WNW,282,17.0,22.0,-999,-99.99,,,-99.99,,2013-03-16 03:33:00,
2013-03-15 20:43:00,51.0,-99.9,30.07,WNW,283,24.0,28.0,-999,-99.99,,,-99.99,,2013-03-16 03:43:00,
2013-03-15 20:53:00,51.0,-99.9,30.08,WNW,283,25.0,30.0,-999,-99.99,,,-99.99,,2013-03-16 03:53:00,
2013-03-15 21:03:00,51.0,-99.9,30.09,WNW,296,22.0,28.0,-999,-99.99,,,-99.99,,2013-03-16 04:03:00,
2013-03-15 21:13:00,51.0,-99.9,30.10,WNW,302,21.0,27.0,-999,-99.99,,,-99.99,,2013-03-16 04:13:00,
2013-03-15 21:23:00,50.0,-99.9,30.10,NW,307,24.0,28.0,-999,-99.99,,,-99.99,,2013-03-16 04:23:00,
2013-03-15 21:33:00,49.0,-99.9,30.11,WNW,299,26.0,30.0,-999,-99.99,,,-99.99,,2013-03-16 04:33:00,
2013-03-15 21:43:00,49.0,-99.9,30.11,WNW,296,24.0,30.0,-999,-99.99,,,-99.99,,2013-03-16 04:43:00,
2013-03-15 21:53:00,49.0,-99.9,30.12,WNW,303,22.0,27.0,-999,-99.99,,,-99.99,,2013-03-16 04:53:00,
2013-03-15 22:03:00,49.0,-99.9,30.12,NW,311,28.0,31.0,-999,-99.99,,,-99.99,,2013-03-16 05:03:00,
2013-03-15 22:12:00,49.0,-99.9,30.12,WNW,303,24.0,31.0,-999,-99.99,,,-99.99,,2013-03-16 05:12:00,
2013-03-15 22:22:00,49.0,-99.9,30.12,NW,317,23.0,30.0,-999,-99.99,,,-99.99,,2013-03-16 05:22:00,
2013-03-15 22:32:00,49.0,-99.9,30.12,NW,306,21.0,27.0,-999,-99.99,,,-99.99,,2013-03-16 05:32:00,
2013-03-15 22:42:00,49.0,-99.9,30.12,NW,315,20.0,27.0,-999,-99.99,,,-99.99,,2013-03-16 05:42:00,
2013-03-15 22:53:00,49.0,-99.9,30.12,NW,315,19.0,26.0,-999,-99.99,,,-99.99,,2013-03-16 05:53:00,
2013-03-15 23:02:00,49.0,-99.9,30.13,WNW,301,23.0,31.0,-999,-99.99,,,-99.99,,2013-03-16 06:02:00,
2013-03-15 23:12:00,49.0,-99.9,30.12,WNW,303,23.0,27.0,-999,-99.99,,,-99.99,,2013-03-16 06:12:00,
2013-03-15 23:22:00,49.0,-99.9,30.12,NW,310,27.0,30.0,-999,-99.99,,,-99.99,,2013-03-16 06:22:00,
2013-03-15 23:32:00,49.0,-99.9,30.12,NW,307,25.0,31.0,-999,-99.99,,,-99.99,,2013-03-16 06:32:00,
2013-03-15 23:42:00,49.0,-99.9,30.12,NW,307,25.0,30.0,-999,-99.99,,,-99.99,,2013-03-16 06:42:00,
2013-03-15 23:52:00,50.0,-99.9,30.12,NW,308,22.0,29.0,-999,-99.99,,,-99.99,,2013-03-16 06:52:00,